sensor_id;sensor_type;location;lat;lon;timestamp;pressure;altitude;pressure_sealevel;temperature;humidity
25560;BME280;13450;49.374;8.584;2024-03-25T00:01:24;99782.03;;;4.90;100.00
25560;BME280;13450;49.374;8.584;2024-03-25T00:03:50;99773.44;;;4.88;100.00
25560;BME280;13450;49.374;8.584;2024-03-25T00:06:16;99779.69;;;4.87;100.00
25560;BME280;13450;49.374;8.584;2024-03-25T00:08:41;99781.88;;;4.83;100.00
25560;BME280;13450;49.374;8.584;2024-03-25T00:11:07;99789.66;;;4.84;100.00
25560;BME280;13450;49.374;8.584;2024-03-25T00:13:32;99786.84;;;4.86;100.00
25560;BME280;13450;49.374;8.584;2024-03-25T00:15:58;99783.34;;;4.86;100.00
25560;BME280;13450;49.374;8.584;2024-03-25T00:18:23;99786.69;;;4.88;100.00
25560;BME280;13450;49.374;8.584;2024-03-25T00:20:48;99785.69;;;4.89;100.00
25560;BME280;13450;49.374;8.584;2024-03-25T00:23:14;99788.81;;;4.84;100.00
25560;BME280;13450;49.374;8.584;2024-03-25T00:25:42;99788.81;;;4.84;100.00
25560;BME280;13450;49.374;8.584;2024-03-25T00:28:07;99780.88;;;4.84;100.00
25560;BME280;13450;49.374;8.584;2024-03-25T00:30:32;99785.34;;;4.83;100.00
25560;BME280;13450;49.374;8.584;2024-03-25T00:32:58;99780.22;;;4.82;100.00
25560;BME280;13450;49.374;8.584;2024-03-25T00:35:23;99770.25;;;4.84;100.00
25560;BME280;13450;49.374;8.584;2024-03-25T00:37:48;99778.22;;;4.84;100.00
25560;BME280;13450;49.374;8.584;2024-03-25T00:40:14;99774.06;;;4.81;100.00
25560;BME280;13450;49.374;8.584;2024-03-25T00:42:39;99781.38;;;4.79;100.00
25560;BME280;13450;49.374;8.584;2024-03-25T00:45:05;99782.19;;;4.80;100.00
25560;BME280;13450;49.374;8.584;2024-03-25T00:47:32;99779.19;;;4.75;100.00
25560;BME280;13450;49.374;8.584;2024-03-25T00:49:57;99774.41;;;4.70;100.00
25560;BME280;13450;49.374;8.584;2024-03-25T00:52:25;99779.34;;;4.65;100.00
25560;BME280;13450;49.374;8.584;2024-03-25T00:54:51;99789.78;;;4.58;100.00
25560;BME280;13450;49.374;8.584;2024-03-25T00:57:16;99784.28;;;4.51;100.00
25560;BME280;13450;49.374;8.584;2024-03-25T00:59:42;99779.63;;;4.45;100.00
25560;BME280;13450;49.374;8.584;2024-03-25T01:02:09;99776.13;;;4.36;100.00
25560;BME280;13450;49.374;8.584;2024-03-25T01:04:34;99785.38;;;4.32;100.00
25560;BME280;13450;49.374;8.584;2024-03-25T01:07:00;99783.22;;;4.27;100.00
25560;BME280;13450;49.374;8.584;2024-03-25T01:09:25;99790.81;;;4.22;100.00
25560;BME280;13450;49.374;8.584;2024-03-25T01:11:51;99783.34;;;4.17;100.00
25560;BME280;13450;49.374;8.584;2024-03-25T01:14:16;99785.63;;;4.12;100.00
25560;BME280;13450;49.374;8.584;2024-03-25T01:16:41;99787.41;;;4.03;100.00
25560;BME280;13450;49.374;8.584;2024-03-25T01:19:10;99790.91;;;4.04;100.00
25560;BME280;13450;49.374;8.584;2024-03-25T01:21:35;99790.38;;;4.00;100.00
25560;BME280;13450;49.374;8.584;2024-03-25T01:24:00;99784.72;;;3.95;100.00
25560;BME280;13450;49.374;8.584;2024-03-25T01:26:26;99787.69;;;3.92;100.00
25560;BME280;13450;49.374;8.584;2024-03-25T01:28:52;99780.38;;;3.86;100.00
25560;BME280;13450;49.374;8.584;2024-03-25T01:31:17;99781.53;;;3.83;100.00
25560;BME280;13450;49.374;8.584;2024-03-25T01:33:43;99789.31;;;3.85;100.00
25560;BME280;13450;49.374;8.584;2024-03-25T01:36:08;99779.19;;;3.80;100.00
25560;BME280;13450;49.374;8.584;2024-03-25T01:38:36;99786.63;;;3.76;100.00
25560;BME280;13450;49.374;8.584;2024-03-25T01:41:13;99781.63;;;3.73;100.00
25560;BME280;13450;49.374;8.584;2024-03-25T01:43:40;99781.97;;;3.70;100.00
25560;BME280;13450;49.374;8.584;2024-03-25T01:46:05;99783.25;;;3.66;100.00
25560;BME280;13450;49.374;8.584;2024-03-25T01:48:32;99787.03;;;3.63;100.00
25560;BME280;13450;49.374;8.584;2024-03-25T01:50:58;99793.78;;;3.58;100.00
25560;BME280;13450;49.374;8.584;2024-03-25T01:53:27;99785.34;;;3.62;100.00
25560;BME280;13450;49.374;8.584;2024-03-25T01:55:55;99784.53;;;3.62;100.00
25560;BME280;13450;49.374;8.584;2024-03-25T01:58:23;99793.97;;;3.64;100.00
25560;BME280;13450;49.374;8.584;2024-03-25T02:00:49;99793.16;;;3.64;100.00
25560;BME280;13450;49.374;8.584;2024-03-25T02:03:16;99788.38;;;3.67;100.00
25560;BME280;13450;49.374;8.584;2024-03-25T02:05:43;99787.75;;;3.74;100.00
25560;BME280;13450;49.374;8.584;2024-03-25T02:08:12;99791.91;;;3.76;100.00
25560;BME280;13450;49.374;8.584;2024-03-25T02:10:38;99787.28;;;3.78;100.00
25560;BME280;13450;49.374;8.584;2024-03-25T02:13:03;99790.59;;;3.81;100.00
25560;BME280;13450;49.374;8.584;2024-03-25T02:15:29;99785.16;;;3.82;100.00
25560;BME280;13450;49.374;8.584;2024-03-25T02:17:54;99791.97;;;3.85;100.00
25560;BME280;13450;49.374;8.584;2024-03-25T02:20:20;99786.50;;;3.86;100.00
25560;BME280;13450;49.374;8.584;2024-03-25T02:22:45;99785.66;;;3.86;100.00
25560;BME280;13450;49.374;8.584;2024-03-25T02:25:10;99790.81;;;3.87;100.00
25560;BME280;13450;49.374;8.584;2024-03-25T02:27:37;99788.00;;;3.89;100.00
25560;BME280;13450;49.374;8.584;2024-03-25T02:30:07;99791.63;;;3.88;100.00
25560;BME280;13450;49.374;8.584;2024-03-25T02:32:36;99796.59;;;3.91;100.00
25560;BME280;13450;49.374;8.584;2024-03-25T02:35:07;99789.34;;;3.93;100.00
25560;BME280;13450;49.374;8.584;2024-03-25T02:37:35;99782.22;;;3.93;100.00
25560;BME280;13450;49.374;8.584;2024-03-25T02:40:02;99777.09;;;3.92;100.00
25560;BME280;13450;49.374;8.584;2024-03-25T02:42:30;99773.47;;;3.93;100.00
25560;BME280;13450;49.374;8.584;2024-03-25T02:44:56;99777.78;;;3.94;100.00
25560;BME280;13450;49.374;8.584;2024-03-25T02:47:22;99773.47;;;3.93;100.00
25560;BME280;13450;49.374;8.584;2024-03-25T02:49:47;99780.28;;;3.96;100.00
25560;BME280;13450;49.374;8.584;2024-03-25T02:52:13;99779.44;;;3.95;100.00
25560;BME280;13450;49.374;8.584;2024-03-25T02:54:38;99774.97;;;3.96;100.00
25560;BME280;13450;49.374;8.584;2024-03-25T02:57:04;99773.28;;;3.95;100.00
25560;BME280;13450;49.374;8.584;2024-03-25T02:59:29;99764.53;;;3.94;100.00
25560;BME280;13450;49.374;8.584;2024-03-25T03:01:55;99768.84;;;3.95;100.00
25560;BME280;13450;49.374;8.584;2024-03-25T03:04:20;99775.28;;;3.92;100.00
25560;BME280;13450;49.374;8.584;2024-03-25T03:06:45;99775.44;;;3.91;100.00
25560;BME280;13450;49.374;8.584;2024-03-25T03:09:11;99770.44;;;3.88;100.00
25560;BME280;13450;49.374;8.584;2024-03-25T03:11:41;99766.47;;;3.84;100.00
25560;BME280;13450;49.374;8.584;2024-03-25T03:14:07;99765.78;;;3.82;100.00
25560;BME280;13450;49.374;8.584;2024-03-25T03:16:32;99767.09;;;3.77;100.00
25560;BME280;13450;49.374;8.584;2024-03-25T03:19:00;99766.44;;;3.75;100.00
25560;BME280;13450;49.374;8.584;2024-03-25T03:21:26;99767.41;;;3.74;100.00
25560;BME280;13450;49.374;8.584;2024-03-25T03:23:53;99758.94;;;3.71;100.00
25560;BME280;13450;49.374;8.584;2024-03-25T03:26:19;99765.22;;;3.70;100.00
25560;BME280;13450;49.374;8.584;2024-03-25T03:28:44;99755.94;;;3.65;100.00
25560;BME280;13450;49.374;8.584;2024-03-25T03:31:11;99757.53;;;3.58;100.00
25560;BME280;13450;49.374;8.584;2024-03-25T03:33:37;99760.38;;;3.57;100.00
25560;BME280;13450;49.374;8.584;2024-03-25T03:36:02;99758.03;;;3.53;100.00
25560;BME280;13450;49.374;8.584;2024-03-25T03:38:28;99758.47;;;3.49;100.00
25560;BME280;13450;49.374;8.584;2024-03-25T03:43:22;99768.84;;;3.42;100.00
25560;BME280;13450;49.374;8.584;2024-03-25T03:45:47;99758.59;;;3.39;100.00
25560;BME280;13450;49.374;8.584;2024-03-25T03:48:13;99760.56;;;3.37;100.00
25560;BME280;13450;49.374;8.584;2024-03-25T03:50:38;99769.78;;;3.33;100.00
25560;BME280;13450;49.374;8.584;2024-03-25T03:53:03;99769.25;;;3.29;100.00
25560;BME280;13450;49.374;8.584;2024-03-25T03:55:31;99768.75;;;3.25;100.00
25560;BME280;13450;49.374;8.584;2024-03-25T03:57:57;99762.09;;;3.21;100.00
25560;BME280;13450;49.374;8.584;2024-03-25T04:00:22;99768.53;;;3.19;100.00
25560;BME280;13450;49.374;8.584;2024-03-25T04:02:47;99768.00;;;3.15;100.00
25560;BME280;13450;49.374;8.584;2024-03-25T04:05:13;99772.09;;;3.09;100.00
25560;BME280;13450;49.374;8.584;2024-03-25T04:07:38;99775.47;;;3.01;100.00
25560;BME280;13450;49.374;8.584;2024-03-25T04:10:04;99768.84;;;2.97;100.00
25560;BME280;13450;49.374;8.584;2024-03-25T04:12:29;99777.91;;;2.95;100.00
25560;BME280;13450;49.374;8.584;2024-03-25T04:14:55;99779.03;;;2.92;100.00
25560;BME280;13450;49.374;8.584;2024-03-25T04:17:21;99778.38;;;2.90;100.00
25560;BME280;13450;49.374;8.584;2024-03-25T04:19:48;99773.38;;;2.87;100.00
25560;BME280;13450;49.374;8.584;2024-03-25T04:22:13;99762.81;;;2.87;100.00
25560;BME280;13450;49.374;8.584;2024-03-25T04:24:39;99773.28;;;2.79;100.00
25560;BME280;13450;49.374;8.584;2024-03-25T04:27:04;99775.28;;;2.77;100.00
25560;BME280;13450;49.374;8.584;2024-03-25T04:29:29;99778.91;;;2.76;100.00
25560;BME280;13450;49.374;8.584;2024-03-25T04:31:55;99776.84;;;2.69;100.00
25560;BME280;13450;49.374;8.584;2024-03-25T04:34:20;99772.31;;;2.61;100.00
25560;BME280;13450;49.374;8.584;2024-03-25T04:36:46;99772.06;;;2.55;100.00
25560;BME280;13450;49.374;8.584;2024-03-25T04:39:11;99774.34;;;2.50;100.00
25560;BME280;13450;49.374;8.584;2024-03-25T04:41:36;99778.25;;;2.45;100.00
25560;BME280;13450;49.374;8.584;2024-03-25T04:44:02;99774.91;;;2.43;100.00
25560;BME280;13450;49.374;8.584;2024-03-25T04:46:27;99777.16;;;2.38;100.00
25560;BME280;13450;49.374;8.584;2024-03-25T04:48:52;99767.59;;;2.37;100.00
25560;BME280;13450;49.374;8.584;2024-03-25T04:51:19;99772.19;;;2.35;100.00
25560;BME280;13450;49.374;8.584;2024-03-25T04:53:44;99780.25;;;2.33;100.00
25560;BME280;13450;49.374;8.584;2024-03-25T04:56:09;99780.69;;;2.29;100.00
25560;BME280;13450;49.374;8.584;2024-03-25T04:58:35;99779.44;;;2.33;100.00
25560;BME280;13450;49.374;8.584;2024-03-25T05:01:03;99785.00;;;2.30;100.00
25560;BME280;13450;49.374;8.584;2024-03-25T05:03:30;99780.31;;;2.24;100.00
25560;BME280;13450;49.374;8.584;2024-03-25T05:05:56;99782.94;;;2.24;100.00
25560;BME280;13450;49.374;8.584;2024-03-25T05:08:21;99792.00;;;2.21;100.00
25560;BME280;13450;49.374;8.584;2024-03-25T05:10:47;99788.97;;;2.16;100.00
25560;BME280;13450;49.374;8.584;2024-03-25T05:13:14;99794.09;;;2.17;100.00
25560;BME280;13450;49.374;8.584;2024-03-25T05:15:40;99790.75;;;2.15;100.00
25560;BME280;13450;49.374;8.584;2024-03-25T05:18:06;99801.47;;;2.14;100.00
25560;BME280;13450;49.374;8.584;2024-03-25T05:20:31;99795.50;;;2.12;100.00
25560;BME280;13450;49.374;8.584;2024-03-25T05:22:56;99798.69;;;2.15;100.00
25560;BME280;13450;49.374;8.584;2024-03-25T05:25:22;99795.38;;;2.13;100.00
25560;BME280;13450;49.374;8.584;2024-03-25T05:27:56;99799.00;;;2.12;100.00
25560;BME280;13450;49.374;8.584;2024-03-25T05:30:23;99795.66;;;2.10;100.00
25560;BME280;13450;49.374;8.584;2024-03-25T05:32:48;99809.25;;;2.15;100.00
25560;BME280;13450;49.374;8.584;2024-03-25T05:35:16;99806.31;;;2.18;100.00
25560;BME280;13450;49.374;8.584;2024-03-25T05:37:43;99808.56;;;2.13;100.00
25560;BME280;13450;49.374;8.584;2024-03-25T05:40:13;99801.91;;;2.09;100.00
25560;BME280;13450;49.374;8.584;2024-03-25T05:42:40;99805.94;;;2.13;100.00
25560;BME280;13450;49.374;8.584;2024-03-25T05:45:05;99813.00;;;2.13;100.00
25560;BME280;13450;49.374;8.584;2024-03-25T05:47:34;99809.38;;;2.14;100.00
25560;BME280;13450;49.374;8.584;2024-03-25T05:50:00;99801.78;;;2.11;100.00
25560;BME280;13450;49.374;8.584;2024-03-25T05:52:28;99798.28;;;2.10;100.00
25560;BME280;13450;49.374;8.584;2024-03-25T05:54:53;99810.38;;;2.13;100.00
25560;BME280;13450;49.374;8.584;2024-03-25T05:57:21;99804.66;;;2.17;100.00
25560;BME280;13450;49.374;8.584;2024-03-25T05:59:46;99807.31;;;2.17;100.00
25560;BME280;13450;49.374;8.584;2024-03-25T06:02:12;99817.00;;;2.27;100.00
25560;BME280;13450;49.374;8.584;2024-03-25T06:04:40;99808.09;;;2.28;100.00
25560;BME280;13450;49.374;8.584;2024-03-25T06:07:05;99816.84;;;2.28;100.00
25560;BME280;13450;49.374;8.584;2024-03-25T06:09:30;99817.09;;;2.35;100.00
25560;BME280;13450;49.374;8.584;2024-03-25T06:11:55;99809.25;;;2.43;100.00
25560;BME280;13450;49.374;8.584;2024-03-25T06:14:21;99804.38;;;2.48;100.00
25560;BME280;13450;49.374;8.584;2024-03-25T06:16:51;99811.03;;;2.53;100.00
25560;BME280;13450;49.374;8.584;2024-03-25T06:19:16;99810.44;;;2.59;100.00
25560;BME280;13450;49.374;8.584;2024-03-25T06:21:42;99813.44;;;2.64;100.00
25560;BME280;13450;49.374;8.584;2024-03-25T06:24:08;99810.63;;;2.76;100.00
25560;BME280;13450;49.374;8.584;2024-03-25T06:26:33;99818.91;;;2.81;100.00
25560;BME280;13450;49.374;8.584;2024-03-25T06:28:59;99809.72;;;2.85;100.00
25560;BME280;13450;49.374;8.584;2024-03-25T06:31:24;99818.53;;;2.94;100.00
25560;BME280;13450;49.374;8.584;2024-03-25T06:34:08;99813.47;;;3.00;100.00
25560;BME280;13450;49.374;8.584;2024-03-25T06:36:42;99817.84;;;3.10;100.00
25560;BME280;13450;49.374;8.584;2024-03-25T06:39:08;99819.91;;;3.16;100.00
25560;BME280;13450;49.374;8.584;2024-03-25T06:41:34;99816.19;;;3.27;100.00
25560;BME280;13450;49.374;8.584;2024-03-25T06:43:59;99826.03;;;3.35;100.00
25560;BME280;13450;49.374;8.584;2024-03-25T06:46:25;99823.13;;;3.46;100.00
25560;BME280;13450;49.374;8.584;2024-03-25T06:48:50;99825.81;;;3.55;100.00
25560;BME280;13450;49.374;8.584;2024-03-25T06:51:17;99828.25;;;3.66;100.00
25560;BME280;13450;49.374;8.584;2024-03-25T06:53:42;99831.25;;;3.71;100.00
25560;BME280;13450;49.374;8.584;2024-03-25T06:56:08;99834.63;;;3.82;100.00
25560;BME280;13450;49.374;8.584;2024-03-25T06:58:34;99829.38;;;3.90;100.00
25560;BME280;13450;49.374;8.584;2024-03-25T07:01:07;99832.38;;;3.95;100.00
25560;BME280;13450;49.374;8.584;2024-03-25T07:03:33;99828.13;;;4.02;100.00
25560;BME280;13450;49.374;8.584;2024-03-25T07:05:59;99831.94;;;4.08;100.00
25560;BME280;13450;49.374;8.584;2024-03-25T07:08:25;99832.97;;;4.15;100.00
25560;BME280;13450;49.374;8.584;2024-03-25T07:10:51;99824.94;;;4.25;100.00
25560;BME280;13450;49.374;8.584;2024-03-25T07:13:17;99833.06;;;4.32;100.00
25560;BME280;13450;49.374;8.584;2024-03-25T07:15:43;99819.34;;;4.37;100.00
25560;BME280;13450;49.374;8.584;2024-03-25T07:18:11;99831.13;;;4.42;100.00
25560;BME280;13450;49.374;8.584;2024-03-25T07:20:41;99834.66;;;4.51;100.00
25560;BME280;13450;49.374;8.584;2024-03-25T07:23:10;99829.69;;;4.56;100.00
25560;BME280;13450;49.374;8.584;2024-03-25T07:25:35;99813.97;;;4.63;100.00
25560;BME280;13450;49.374;8.584;2024-03-25T07:28:02;99821.09;;;4.71;100.00
25560;BME280;13450;49.374;8.584;2024-03-25T07:30:27;99825.44;;;4.80;100.00
25560;BME280;13450;49.374;8.584;2024-03-25T07:32:57;99816.66;;;4.88;100.00
25560;BME280;13450;49.374;8.584;2024-03-25T07:35:23;99818.50;;;4.96;100.00
25560;BME280;13450;49.374;8.584;2024-03-25T07:37:51;99810.56;;;5.04;100.00
25560;BME280;13450;49.374;8.584;2024-03-25T07:40:21;99805.94;;;5.15;100.00
25560;BME280;13450;49.374;8.584;2024-03-25T07:42:47;99815.22;;;5.27;100.00
25560;BME280;13450;49.374;8.584;2024-03-25T07:45:16;99817.88;;;5.35;100.00
25560;BME280;13450;49.374;8.584;2024-03-25T07:47:41;99820.84;;;5.41;100.00
25560;BME280;13450;49.374;8.584;2024-03-25T07:50:09;99818.53;;;5.46;100.00
25560;BME280;13450;49.374;8.584;2024-03-25T07:52:34;99817.19;;;5.58;100.00
25560;BME280;13450;49.374;8.584;2024-03-25T07:55:08;99806.09;;;5.63;100.00
25560;BME280;13450;49.374;8.584;2024-03-25T07:57:34;99822.81;;;5.72;100.00
25560;BME280;13450;49.374;8.584;2024-03-25T07:59:59;99810.88;;;5.76;100.00
25560;BME280;13450;49.374;8.584;2024-03-25T08:02:25;99814.16;;;5.86;100.00
25560;BME280;13450;49.374;8.584;2024-03-25T08:04:50;99817.63;;;5.95;100.00
25560;BME280;13450;49.374;8.584;2024-03-25T08:07:15;99812.34;;;6.04;100.00
25560;BME280;13450;49.374;8.584;2024-03-25T08:09:41;99807.81;;;6.12;100.00
25560;BME280;13450;49.374;8.584;2024-03-25T08:12:07;99807.63;;;6.22;100.00
25560;BME280;13450;49.374;8.584;2024-03-25T08:14:34;99799.47;;;6.24;100.00
25560;BME280;13450;49.374;8.584;2024-03-25T08:17:04;99805.25;;;6.36;100.00
25560;BME280;13450;49.374;8.584;2024-03-25T08:19:32;99801.06;;;6.41;100.00
25560;BME280;13450;49.374;8.584;2024-03-25T08:21:57;99807.34;;;6.49;100.00
25560;BME280;13450;49.374;8.584;2024-03-25T08:24:25;99800.00;;;6.59;100.00
25560;BME280;13450;49.374;8.584;2024-03-25T08:26:50;99801.59;;;6.69;100.00
25560;BME280;13450;49.374;8.584;2024-03-25T08:29:16;99796.88;;;6.79;100.00
25560;BME280;13450;49.374;8.584;2024-03-25T08:31:46;99791.69;;;6.86;100.00
25560;BME280;13450;49.374;8.584;2024-03-25T08:34:11;99788.41;;;6.99;100.00
25560;BME280;13450;49.374;8.584;2024-03-25T08:36:36;99783.59;;;7.02;100.00
25560;BME280;13450;49.374;8.584;2024-03-25T08:39:02;99783.66;;;7.17;100.00
25560;BME280;13450;49.374;8.584;2024-03-25T08:41:27;99778.91;;;7.28;100.00
25560;BME280;13450;49.374;8.584;2024-03-25T08:43:52;99783.66;;;7.32;100.00
25560;BME280;13450;49.374;8.584;2024-03-25T08:46:18;99782.34;;;7.52;100.00
25560;BME280;13450;49.374;8.584;2024-03-25T08:48:43;99787.34;;;7.70;100.00
25560;BME280;13450;49.374;8.584;2024-03-25T08:51:11;99788.53;;;7.67;100.00
25560;BME280;13450;49.374;8.584;2024-03-25T08:53:37;99784.59;;;7.78;100.00
25560;BME280;13450;49.374;8.584;2024-03-25T08:56:02;99795.34;;;7.85;100.00
25560;BME280;13450;49.374;8.584;2024-03-25T08:58:28;99792.75;;;8.07;100.00
25560;BME280;13450;49.374;8.584;2024-03-25T09:00:53;99790.06;;;8.37;100.00
25560;BME280;13450;49.374;8.584;2024-03-25T09:03:21;99792.78;;;8.74;100.00
25560;BME280;13450;49.374;8.584;2024-03-25T09:05:47;99797.53;;;9.00;100.00
25560;BME280;13450;49.374;8.584;2024-03-25T09:08:12;99799.50;;;9.13;95.38
25560;BME280;13450;49.374;8.584;2024-03-25T09:10:38;99791.56;;;9.20;92.29
25560;BME280;13450;49.374;8.584;2024-03-25T09:13:22;99781.47;;;9.15;88.95
25560;BME280;13450;49.374;8.584;2024-03-25T09:15:48;99784.84;;;9.02;93.21
25560;BME280;13450;49.374;8.584;2024-03-25T09:18:14;99779.88;;;8.99;93.81
25560;BME280;13450;49.374;8.584;2024-03-25T09:20:41;99774.63;;;9.06;96.07
25560;BME280;13450;49.374;8.584;2024-03-25T09:23:09;99761.47;;;9.05;88.04
25560;BME280;13450;49.374;8.584;2024-03-25T09:25:37;99749.38;;;8.87;85.68
25560;BME280;13450;49.374;8.584;2024-03-25T09:28:03;99748.25;;;8.96;84.31
25560;BME280;13450;49.374;8.584;2024-03-25T09:30:33;99744.53;;;8.97;80.91
25560;BME280;13450;49.374;8.584;2024-03-25T09:32:58;99747.03;;;8.99;79.54
25560;BME280;13450;49.374;8.584;2024-03-25T09:35:24;99743.41;;;9.07;77.88
25560;BME280;13450;49.374;8.584;2024-03-25T09:37:50;99741.16;;;9.32;75.37
25560;BME280;13450;49.374;8.584;2024-03-25T09:40:15;99731.38;;;9.46;73.47
25560;BME280;13450;49.374;8.584;2024-03-25T09:42:48;99728.94;;;9.51;71.88
25560;BME280;13450;49.374;8.584;2024-03-25T09:45:17;99716.78;;;9.77;74.55
25560;BME280;13450;49.374;8.584;2024-03-25T09:47:46;99711.59;;;9.69;73.57
25560;BME280;13450;49.374;8.584;2024-03-25T09:50:12;99707.63;;;9.58;68.37
25560;BME280;13450;49.374;8.584;2024-03-25T09:52:40;99707.41;;;9.95;68.63
25560;BME280;13450;49.374;8.584;2024-03-25T09:55:05;99706.94;;;10.33;64.56
25560;BME280;13450;49.374;8.584;2024-03-25T09:57:31;99706.31;;;10.38;60.35
25560;BME280;13450;49.374;8.584;2024-03-25T09:59:57;99713.38;;;10.59;57.66
25560;BME280;13450;49.374;8.584;2024-03-25T10:02:23;99709.75;;;10.88;59.01
25560;BME280;13450;49.374;8.584;2024-03-25T10:04:51;99692.44;;;10.83;57.54
25560;BME280;13450;49.374;8.584;2024-03-25T10:07:23;99693.25;;;10.84;57.35
25560;BME280;13450;49.374;8.584;2024-03-25T10:09:49;99700.25;;;10.92;56.35
25560;BME280;13450;49.374;8.584;2024-03-25T10:12:15;99699.84;;;11.08;56.51
25560;BME280;13450;49.374;8.584;2024-03-25T10:14:43;99692.84;;;11.07;55.07
25560;BME280;13450;49.374;8.584;2024-03-25T10:17:09;99691.00;;;11.28;56.49
25560;BME280;13450;49.374;8.584;2024-03-25T10:19:35;99679.25;;;11.29;56.66
25560;BME280;13450;49.374;8.584;2024-03-25T10:22:07;99680.84;;;11.44;59.82
25560;BME280;13450;49.374;8.584;2024-03-25T10:24:40;99688.09;;;11.16;56.79
25560;BME280;13450;49.374;8.584;2024-03-25T10:27:06;99681.50;;;11.05;60.14
25560;BME280;13450;49.374;8.584;2024-03-25T10:29:34;99678.41;;;11.29;56.22
25560;BME280;13450;49.374;8.584;2024-03-25T10:32:00;99674.47;;;11.45;56.13
25560;BME280;13450;49.374;8.584;2024-03-25T10:34:28;99672.94;;;11.69;56.25
25560;BME280;13450;49.374;8.584;2024-03-25T10:36:57;99665.81;;;12.02;59.16
25560;BME280;13450;49.374;8.584;2024-03-25T10:39:26;99673.59;;;12.24;54.20
25560;BME280;13450;49.374;8.584;2024-03-25T10:42:01;99672.81;;;12.49;51.95
25560;BME280;13450;49.374;8.584;2024-03-25T10:44:30;99671.16;;;12.80;49.13
25560;BME280;13450;49.374;8.584;2024-03-25T10:47:01;99667.22;;;13.52;53.03
25560;BME280;13450;49.374;8.584;2024-03-25T10:49:33;99660.78;;;13.72;47.98
25560;BME280;13450;49.374;8.584;2024-03-25T10:52:01;99660.38;;;14.06;48.45
25560;BME280;13450;49.374;8.584;2024-03-25T10:54:30;99646.38;;;14.70;46.54
25560;BME280;13450;49.374;8.584;2024-03-25T10:57:00;99641.72;;;16.31;47.14
25560;BME280;13450;49.374;8.584;2024-03-25T10:59:26;99641.22;;;18.32;36.74
25560;BME280;13450;49.374;8.584;2024-03-25T11:01:52;99632.69;;;19.91;32.91
25560;BME280;13450;49.374;8.584;2024-03-25T11:04:20;99626.44;;;21.41;34.03
25560;BME280;13450;49.374;8.584;2024-03-25T11:06:46;99625.91;;;21.34;29.06
25560;BME280;13450;49.374;8.584;2024-03-25T11:09:23;99626.84;;;22.65;30.30
25560;BME280;13450;49.374;8.584;2024-03-25T11:11:52;99619.06;;;22.82;27.63
25560;BME280;13450;49.374;8.584;2024-03-25T11:14:25;99621.97;;;22.91;26.40
25560;BME280;13450;49.374;8.584;2024-03-25T11:16:53;99622.44;;;23.72;24.41
25560;BME280;13450;49.374;8.584;2024-03-25T11:19:25;99617.91;;;24.25;23.73
25560;BME280;13450;49.374;8.584;2024-03-25T11:21:51;99607.19;;;27.02;23.35
25560;BME280;13450;49.374;8.584;2024-03-25T11:24:27;99597.09;;;26.89;27.27
25560;BME280;13450;49.374;8.584;2024-03-25T11:26:53;99586.69;;;25.63;22.16
25560;BME280;13450;49.374;8.584;2024-03-25T11:29:20;99580.44;;;25.06;23.60
25560;BME280;13450;49.374;8.584;2024-03-25T11:31:49;99583.09;;;26.13;24.06
25560;BME280;13450;49.374;8.584;2024-03-25T11:34:14;99579.59;;;26.21;22.39
25560;BME280;13450;49.374;8.584;2024-03-25T11:36:39;99582.63;;;25.60;23.43
25560;BME280;13450;49.374;8.584;2024-03-25T11:39:05;99585.88;;;25.34;22.40
25560;BME280;13450;49.374;8.584;2024-03-25T11:41:43;99566.38;;;25.78;25.37
25560;BME280;13450;49.374;8.584;2024-03-25T11:44:09;99567.75;;;25.38;22.10
25560;BME280;13450;49.374;8.584;2024-03-25T11:46:38;99571.03;;;27.00;22.42
25560;BME280;13450;49.374;8.584;2024-03-25T11:49:06;99565.50;;;27.59;21.12
25560;BME280;13450;49.374;8.584;2024-03-25T11:51:33;99569.69;;;27.47;20.18
25560;BME280;13450;49.374;8.584;2024-03-25T11:54:02;99552.75;;;28.16;21.96
25560;BME280;13450;49.374;8.584;2024-03-25T11:56:31;99551.19;;;29.10;19.06
25560;BME280;13450;49.374;8.584;2024-03-25T11:58:58;99554.69;;;27.53;22.23
25560;BME280;13450;49.374;8.584;2024-03-25T12:01:24;99547.44;;;23.45;22.63
25560;BME280;13450;49.374;8.584;2024-03-25T12:03:52;99542.66;;;24.47;24.41
25560;BME280;13450;49.374;8.584;2024-03-25T12:06:17;99540.72;;;23.95;28.82
25560;BME280;13450;49.374;8.584;2024-03-25T12:08:44;99539.19;;;21.22;25.66
25560;BME280;13450;49.374;8.584;2024-03-25T12:11:30;99530.91;;;19.93;27.96
25560;BME280;13450;49.374;8.584;2024-03-25T12:13:55;99527.72;;;18.25;29.28
25560;BME280;13450;49.374;8.584;2024-03-25T12:16:21;99532.75;;;17.11;30.83
25560;BME280;13450;49.374;8.584;2024-03-25T12:18:46;99517.97;;;16.40;31.77
25560;BME280;13450;49.374;8.584;2024-03-25T12:21:14;99513.50;;;16.51;34.13
25560;BME280;13450;49.374;8.584;2024-03-25T12:23:44;99515.69;;;15.86;33.59
25560;BME280;13450;49.374;8.584;2024-03-25T12:26:09;99509.47;;;15.39;34.25
25560;BME280;13450;49.374;8.584;2024-03-25T12:28:35;99501.97;;;14.76;34.98
25560;BME280;13450;49.374;8.584;2024-03-25T12:31:03;99502.06;;;14.21;35.81
25560;BME280;13450;49.374;8.584;2024-03-25T12:33:40;99490.25;;;14.22;36.88
25560;BME280;13450;49.374;8.584;2024-03-25T12:36:05;99484.53;;;14.31;36.79
25560;BME280;13450;49.374;8.584;2024-03-25T12:38:31;99481.22;;;14.29;39.06
25560;BME280;13450;49.374;8.584;2024-03-25T12:41:07;99465.53;;;14.25;38.18
25560;BME280;13450;49.374;8.584;2024-03-25T12:43:43;99463.22;;;14.41;40.54
25560;BME280;13450;49.374;8.584;2024-03-25T12:46:11;99456.44;;;14.50;38.86
25560;BME280;13450;49.374;8.584;2024-03-25T12:48:38;99454.31;;;14.52;40.00
25560;BME280;13450;49.374;8.584;2024-03-25T12:51:03;99453.84;;;14.56;37.70
25560;BME280;13450;49.374;8.584;2024-03-25T12:53:30;99453.38;;;14.59;36.85
25560;BME280;13450;49.374;8.584;2024-03-25T12:55:55;99447.06;;;14.77;36.90
25560;BME280;13450;49.374;8.584;2024-03-25T12:58:20;99441.78;;;17.50;33.70
25560;BME280;13450;49.374;8.584;2024-03-25T13:00:46;99422.22;;;19.00;30.19